METAR rapporter

 

EKCH - Copenhagen/Kastr, Denmark
Afstand til vejrstation: SØ 11km
Opdateret: 29/01/2023 09:20
Mest skyet
Mest skyet
 Vind retning VSV
Vind: VSV 22 km/h
Temperatur: 4°C
Kuldeindeks: -1°C
Dugpunkt: 3°C
Fugtighed: 93%
Barometer: 1018 hPa
Skyer: Mest skyet
Sigtbarhed: 10 km
Sky detaljer: Få skyer 274 m
Mest skyet 4267 m
2023/01/29 08:20 EKCH 290820Z AUTO 25012KT 9999 FEW009/// BKN140/// 04/03 Q1018 TEMPO BKN008
EKRK - Copenhagen/Roski, Denmark
Afstand til vejrstation: VSV 29km
Opdateret: 29/01/2023 09:45
Mest skyet
Mest skyet
 Vind retning VSV
Vind: VSV 19 km/h
Temperatur: 4°C
Kuldeindeks: 0°C
Dugpunkt: 3°C
Fugtighed: 93%
Barometer: 1017 hPa
Skyer: Mest skyet
Sigtbarhed: 10 km
Sky detaljer: Mest skyet 244 m
2023/01/29 08:45 EKRK 290845Z 25010KT 9999 BKN008 04/03 Q1017